x

Mount Louis (45138) Wave Buoy

10:00am - Thu 3rd Sep 2015 All times are UTC.

  • Sig Wave height 3.0ft
  • Peak Period 4s
  • Wind
    22mph, 27mph gusts
  • Sea Temp 53°f
  • Air Temp 56°f
  • Sea Pressure 1007.5mb

More Historic Weather Station data

Upgrade to MSW Pro to gain access to the past 30 days of data for over 8000 Wavebouys and Weather Stations around the globe.

Join Pro

Comparision Forecast

View Surf forecast
   
Thu 09/03 10:00am 3ft 4s 22 27 mph 1007.5mb 53f 56f
9:00am 2ft 3s 16 20 mph 1006.8mb 54f 58f
8:00am 2.5ft 5s 18 22 mph 1006.1mb 53f 59f
6:00am 2.5ft 4s 13 16 mph 1004.4mb 52f 57f
5:00am 3ft 5s 11 13 mph 1004.1mb 53f 56f
4:00am 3.5ft 5s 13 18 mph 1003.8mb 54f 57f
3:00am 4.5ft 5s 16 20 mph 1003.8mb 55f 58f
2:00am 5ft 5s 25 29 mph 1003.4mb 54f 61f
1:00am 5ft 5s 25 31 mph 1003.5mb 53f 61f
12:00am 4.5ft 5s 25 31 mph 1003.4mb 54f 61f
Wed 09/02 11:00pm 3.5ft 4s 25 27 mph 1003.4mb 54f 60f
10:00pm 3ft 4s 22 25 mph 1003.7mb 56f 60f
9:00pm 2.5ft 4s 18 22 mph 1004.2mb 56f 60f
8:00pm 1.3ft 3s 20 25 mph 1004.8mb 57f 60f
7:00pm 1ft 5s 11 16 mph 1006.1mb 58f 60f
6:00pm 1ft 5s 11 13 mph 1006.9mb 58f 58f
5:00pm 0.7ft 6s 9
mph
1007.7mb 59f 59f
4:00pm 0.7ft 6s 4 7 mph 1008.5mb 59f 59f
3:00pm 0.7ft 6s 4
mph
1009mb 58f 60f
2:00pm 0.7ft 10s 4 7 mph 1009.5mb 57f 57f
1:00pm 0.7ft 6s 4 7 mph 1009.7mb 56f 57f
12:00pm 0.7ft 6s 4
mph
1009.8mb 55f 56f
11:00am 0.7ft 3s 2 4 mph 1009.8mb 55f 56f
10:00am 0.7ft 3s 7
mph
1009.8mb 55f 56f
9:00am 1ft 3s 2 4 mph 1009.4mb 54f 56f
8:00am 1ft 3s 2
mph
1009.8mb 54f 55f
7:00am 1ft 3s 4 7 mph 1009.9mb 54f 55f
6:00am 1ft 3s 9
mph
1010.6mb 55f 56f
5:00am 0.7ft 3s 11 13 mph 1011.4mb 55f 56f
4:00am 0.3ft 10s 11
mph
1012.5mb 53f 55f
3:00am 0.3ft 10s 7 9 mph 1013.3mb 53f 55f
2:00am 0.3ft 7s 7
mph
1014.1mb 54f 54f
1:00am 0.3ft 8s 4 7 mph 1014.2mb 53f 53f
12:00am 0.3ft 8s 2 4 mph 1014.3mb 53f 53f
Tue 09/01 11:00pm 0.7ft 3s 4
mph
1014mb 52f 53f
10:00pm 0.7ft 3s 2
mph
1014mb 53f 53f
9:00pm 0.7ft 4s 4 7 mph 1014.2mb 56f 54f
8:00pm 1ft 4s 4 7 mph 1015.1mb 56f 55f
7:00pm 1.3ft 4s 4
mph
1015.8mb 56f 55f
6:00pm 1.3ft 4s 4
mph
1016.3mb 56f 55f
5:00pm 1.6ft 4s 4 7 mph 1016.3mb 55f 55f
4:00pm 1.6ft 4s 9 11 mph 1017mb 55f 55f
3:00pm 1.6ft 4s 9
mph
1017.3mb 55f 55f
2:00pm 2ft 4s 11
mph
1017.6mb 56f 55f
1:00pm 2.5ft 4s 11 13 mph 1017.7mb 56f 54f
12:00pm 3.5ft 4s 7 9 mph 1016.6mb 56f 56f
11:00am 3.5ft 5s 13
mph
1016.3mb 55f 55f
10:00am 3.5ft 5s 16 20 mph 1014.9mb 56f 55f
8:00am 4.5ft 5s 18 25 mph 1013mb 56f 55f
7:00am 4.5ft 5s 16 18 mph 1012.1mb 56f 56f
6:00am 4.5ft 5s 18 22 mph 1011.1mb 56f 56f
5:00am 4.5ft 5s 20 25 mph 1010.3mb 57f 56f
4:00am 5ft 5s 22 29 mph 1009.4mb 57f 58f
3:00am 5ft 5s 22 27 mph 1009.4mb 57f 58f
2:00am  -   -  20
mph
- - -
12:00am 4.5ft 6s 31 38 mph 1003.5mb 59f 61f
Mon 08/31 11:00pm 4ft 5s 22 27 mph 1001.3mb 59f 62f
10:00pm 4.5ft 6s 18 20 mph 999.8mb 59f 62f
9:00pm 5.5ft 5s 22 27 mph 998.8mb 59f 62f
8:00pm 5ft 5s 25 31 mph 997.6mb 59f 61f
6:00pm 3.5ft 4s 27 31 mph 997.4mb 61f 60f
4:00pm 1.6ft 3s 18 22 mph 998.6mb 61f 61f
3:00pm 1.3ft 3s 11 13 mph 999.1mb 61f 63f
2:00pm 1ft 4s 13 16 mph 1000mb 61f 64f
1:00pm 1ft 4s 11 13 mph 1000.9mb 60f 63f
12:00pm 1ft 5s 9
mph
1001.9mb 58f 63f
11:00am 1ft 3s 9 11 mph 1002.7mb 58f 60f
10:00am 1.3ft 4s 7
mph
1003.9mb 58f 59f
9:00am 1.3ft 4s 4 7 mph 1004.6mb 58f 60f
8:00am 1.3ft 3s 9
mph
1005.2mb 58f 60f
7:00am 1.3ft 4s 9
mph
1005.9mb 58f 60f
6:00am 1.3ft 3s 7
mph
1006.4mb 58f 60f
5:00am 1.6ft 4s 9
mph
1007mb 58f 60f
4:00am 1.6ft 3s 9 11 mph 1007.8mb 58f 60f
3:00am 1.3ft 3s 11
mph
1008.5mb 58f 61f
2:00am 1.6ft 3s 13 18 mph 1008.9mb 58f 62f
1:00am 1.3ft 3s 20 22 mph 1009.5mb 58f 62f
12:00am 1ft  -  11 13 mph 1009.7mb 57f 60f
Sun 08/30 11:00pm 1ft 9s 7 9 mph 1009.9mb 58f 60f
10:00pm 1ft 3s 7 9 mph 1010mb 59f 59f
9:00pm 1ft 2s 7
mph
1010.3mb 57f 59f
8:00pm 1.3ft 3s 11 13 mph 1010.5mb 58f 58f
7:00pm 1ft 3s 13
mph
1010.8mb 58f 58f
6:00pm 0.7ft  -  11 13 mph 1011mb 58f 59f
5:00pm 0.7ft 10s 7
mph
1011mb 58f 59f
4:00pm 0.7ft 9s 9
mph
1011.7mb 57f 59f
3:00pm 0.7ft 10s 4
mph
1012mb 58f 59f
2:00pm 0.7ft 3s 4 7 mph 1012.1mb 57f 59f
1:00pm 1ft 3s 4
mph
1012.2mb 58f 58f
12:00pm 1.3ft 3s 7 9 mph 1012mb 57f 59f